Terminal Aerodrome Forecast
Issued by NWS Green Bay, WI

Home | Current Version | Previous Version | Text Only | Print | Product List | Glossary On
Versions: 1 2 3 4 5 6 7 8 9 10 11 12 13 14 15 16 17 18 19 20 21 22 23 24 25 26 27 28 29 30 31 32 33 34 35 36 37 38 39 40 41 42 43
000
FTUS43 KGRB 221134
TAFGRB
TAF
KGRB 221134Z 2212/2312 05006KT P6SM OVC060
     FM221400 05009KT P6SM -SHRA OVC035
     FM221600 06010G16KT 6SM -SHRA OVC018
     FM221800 07011G19KT 2SM SHRA OVC006
     FM222100 04016G25KT 2SM SHRA OVC004
      TEMPO 2223/2303 1SM +TSRA BKN004 OVC015CB
     FM230800 36013G20KT 4SM -SHRA OVC008=

USA.gov is the U.S. government's official web portal to all federal, state and local government web resources and services.